createdAt,value
2019-04-04T00:00:47.026Z,14.17
2019-04-04T00:03:47.864Z,15.90
2019-04-04T00:06:48.577Z,16.07
2019-04-04T00:09:49.141Z,14.90
2019-04-04T00:12:50.045Z,15.87
2019-04-04T00:15:50.945Z,18.80
2019-04-04T00:18:51.489Z,13.47
2019-04-04T00:21:52.409Z,17.03
2019-04-04T00:24:53.179Z,16.53
2019-04-04T00:27:53.916Z,16.97
2019-04-04T00:30:54.760Z,18.30
2019-04-04T00:33:55.820Z,17.33
2019-04-04T00:36:57.584Z,15.90
2019-04-04T00:39:58.277Z,14.77
2019-04-04T00:42:59.004Z,15.10
2019-04-04T00:46:00.794Z,14.80
2019-04-04T00:49:04.488Z,17.53
2019-04-04T00:52:04.741Z,15.40
2019-04-04T00:55:05.461Z,15.10
2019-04-04T00:58:06.398Z,12.53
2019-04-04T01:01:07.527Z,15.13
2019-04-04T01:04:08.263Z,14.93
2019-04-04T01:07:08.731Z,14.57
2019-04-04T01:10:09.522Z,12.37
2019-04-04T01:13:10.414Z,15.73
2019-04-04T01:16:11.409Z,11.90
2019-04-04T01:19:11.944Z,11.97
2019-04-04T01:22:12.786Z,12.90
2019-04-04T01:25:13.918Z,14.10
2019-04-04T01:28:14.814Z,16.43
2019-04-04T01:31:15.539Z,12.70
2019-04-04T01:34:16.376Z,11.87
2019-04-04T01:37:16.818Z,11.53
2019-04-04T01:40:17.729Z,13.33
2019-04-04T01:43:18.309Z,13.43
2019-04-04T01:46:18.952Z,12.03
2019-04-04T01:49:21.202Z,12.17
2019-04-04T01:52:22.364Z,14.57
2019-04-04T01:55:22.895Z,15.70
2019-04-04T01:58:23.826Z,15.67
2019-04-04T02:01:24.796Z,15.07
2019-04-04T02:04:25.535Z,15.07
2019-04-04T02:07:27.853Z,13.60
2019-04-04T02:10:27.146Z,16.97
2019-04-04T02:13:28.275Z,14.40
2019-04-04T02:16:28.942Z,14.17
2019-04-04T02:19:29.814Z,13.00
2019-04-04T02:22:31.090Z,12.77
2019-04-04T02:25:34.237Z,11.53
2019-04-04T02:28:34.486Z,12.67
2019-04-04T02:31:38.925Z,14.93
2019-04-04T02:34:39.758Z,9.77
2019-04-04T02:37:40.762Z,10.80
2019-04-04T02:40:42.186Z,9.83
2019-04-04T02:43:43.522Z,11.77
2019-04-04T02:46:45.637Z,11.27
2019-04-04T02:49:46.446Z,8.63
2019-04-04T02:52:47.048Z,10.73
2019-04-04T02:55:47.563Z,9.73
2019-04-04T02:58:48.272Z,10.23
2019-04-04T03:01:49.036Z,11.97
2019-04-04T03:04:49.783Z,12.27
2019-04-04T03:07:51.063Z,11.17
2019-04-04T03:10:51.788Z,10.27
2019-04-04T03:13:52.638Z,9.53
2019-04-04T03:16:56.507Z,10.63
2019-04-04T03:19:56.157Z,9.93
2019-04-04T03:23:00.305Z,9.23
2019-04-04T03:25:59.473Z,10.20
2019-04-04T03:29:04.165Z,10.20
2019-04-04T03:32:02.988Z,11.70
2019-04-04T03:35:03.691Z,9.80
2019-04-04T03:38:04.421Z,10.10
2019-04-04T03:41:04.921Z,11.13
2019-04-04T03:44:05.788Z,12.60
2019-04-04T03:47:09.894Z,12.10
2019-04-04T03:50:09.410Z,12.93
2019-04-04T03:53:10.349Z,11.77
2019-04-04T03:56:11.186Z,11.20
2019-04-04T03:59:11.987Z,12.07
2019-04-04T04:02:12.723Z,12.63
2019-04-04T04:05:14.734Z,13.90
2019-04-04T04:08:15.525Z,18.83
2019-04-04T04:11:16.308Z,15.57
2019-04-04T04:14:16.954Z,13.13
2019-04-04T04:17:17.634Z,13.00
2019-04-04T04:20:18.330Z,12.77
2019-04-04T04:23:23.021Z,30.73
2019-04-04T04:26:21.780Z,25.00
2019-04-04T04:29:22.555Z,16.13
2019-04-04T04:32:23.183Z,16.27
2019-04-04T04:35:24.022Z,19.93
2019-04-04T04:38:26.892Z,19.20
2019-04-04T04:41:27.733Z,16.83
2019-04-04T04:44:28.708Z,15.33
2019-04-04T04:47:29.449Z,15.03
2019-04-04T04:50:30.519Z,12.73
2019-04-04T04:53:31.313Z,15.23
2019-04-04T04:56:31.998Z,15.07
2019-04-04T04:59:32.834Z,15.50
2019-04-04T05:02:33.765Z,13.90
2019-04-04T05:05:34.567Z,16.00
2019-04-04T05:08:35.238Z,14.87
2019-04-04T05:11:35.788Z,22.27
2019-04-04T05:14:36.575Z,22.37
2019-04-04T05:17:37.509Z,17.70
2019-04-04T05:20:38.427Z,15.37
2019-04-04T05:23:39.321Z,18.17
2019-04-04T05:26:39.957Z,16.60
2019-04-04T05:29:41.032Z,18.17
2019-04-04T05:32:41.668Z,19.17
2019-04-04T05:35:42.435Z,17.47
2019-04-04T05:38:46.951Z,21.13
2019-04-04T05:41:46.027Z,18.07
2019-04-04T05:44:46.634Z,20.37
2019-04-04T05:47:47.613Z,15.63
2019-04-04T05:50:48.496Z,15.63
2019-04-04T05:53:49.149Z,16.77
2019-04-04T05:56:49.977Z,14.63
2019-04-04T05:59:50.653Z,15.37
2019-04-04T06:02:51.642Z,19.90
2019-04-04T06:05:52.537Z,18.40
2019-04-04T06:08:53.103Z,21.77
2019-04-04T06:11:54.270Z,16.97
2019-04-04T06:14:54.959Z,15.77
2019-04-04T06:17:55.733Z,16.40
2019-04-04T06:20:56.381Z,17.70
2019-04-04T06:23:57.287Z,21.80
2019-04-04T06:26:58.018Z,19.70
2019-04-04T06:29:58.493Z,17.07
2019-04-04T06:32:59.449Z,21.53
2019-04-04T06:36:00.294Z,20.47
2019-04-04T06:39:01.182Z,16.80
2019-04-04T06:42:03.275Z,25.77
2019-04-04T06:45:04.867Z,20.00
2019-04-04T06:48:05.759Z,16.10
2019-04-04T06:51:06.777Z,16.73
2019-04-04T06:54:07.446Z,18.07
2019-04-04T06:57:08.250Z,17.43
2019-04-04T07:00:09.087Z,18.53
2019-04-04T07:03:09.967Z,16.87
2019-04-04T07:06:10.986Z,17.33
2019-04-04T07:09:13.501Z,18.13
2019-04-04T07:12:22.244Z,17.10
2019-04-04T07:15:16.730Z,20.13
2019-04-04T07:18:17.575Z,21.00
2019-04-04T07:21:20.177Z,17.70
2019-04-04T07:24:21.094Z,20.00
2019-04-04T07:27:22.137Z,20.70
2019-04-04T07:30:23.254Z,17.70
2019-04-04T07:33:23.985Z,19.33
2019-04-04T07:36:24.731Z,20.80
2019-04-04T07:39:25.481Z,21.37
2019-04-04T07:42:26.290Z,17.97
2019-04-04T07:45:27.053Z,16.77
2019-04-04T07:48:28.580Z,17.27
2019-04-04T07:51:30.236Z,16.87
2019-04-04T07:54:32.033Z,17.97
2019-04-04T07:57:33.066Z,18.43
2019-04-04T08:00:33.974Z,18.13
2019-04-04T08:03:34.818Z,20.70
2019-04-04T08:06:36.041Z,19.80
2019-04-04T08:09:36.676Z,18.47
2019-04-04T08:12:37.626Z,18.07
2019-04-04T08:15:38.594Z,22.03
2019-04-04T08:18:39.618Z,17.73
2019-04-04T08:21:40.276Z,20.87
2019-04-04T08:24:41.242Z,18.87
2019-04-04T08:27:41.954Z,21.27
2019-04-04T08:30:43.051Z,17.07
2019-04-04T08:33:43.777Z,16.07
2019-04-04T08:36:44.643Z,18.50
2019-04-04T08:39:45.372Z,17.43
2019-04-04T08:42:46.031Z,17.00
2019-04-04T08:45:46.792Z,16.33
2019-04-04T08:48:47.538Z,17.23
2019-04-04T08:51:48.202Z,16.87
2019-04-04T08:54:48.958Z,17.87
2019-04-04T08:57:49.782Z,16.37
2019-04-04T09:00:50.666Z,17.70
2019-04-04T09:03:51.482Z,16.53
2019-04-04T09:06:52.357Z,16.40
2019-04-04T09:09:53.163Z,18.67
2019-04-04T09:12:54.117Z,14.53
2019-04-04T09:15:54.905Z,17.07
2019-04-04T09:18:55.797Z,16.40
2019-04-04T09:21:56.738Z,16.83
2019-04-04T09:24:57.510Z,15.07
2019-04-04T09:27:58.389Z,13.40
2019-04-04T09:30:59.333Z,13.77
2019-04-04T09:34:00.125Z,14.00
2019-04-04T09:37:00.866Z,13.33
2019-04-04T09:40:01.688Z,17.23
2019-04-04T09:43:02.532Z,14.47
2019-04-04T09:46:03.277Z,16.10
2019-04-04T09:49:04.117Z,16.27
2019-04-04T09:52:04.950Z,13.60
2019-04-04T09:55:05.746Z,18.83
2019-04-04T09:58:06.486Z,15.70
2019-04-04T10:01:07.321Z,18.93
2019-04-04T10:04:07.969Z,14.80
2019-04-04T10:07:08.990Z,15.87
2019-04-04T10:10:09.847Z,19.43
2019-04-04T10:13:10.758Z,19.27
2019-04-04T10:16:11.462Z,18.60
2019-04-04T10:19:12.185Z,14.93
2019-04-04T10:22:13.088Z,16.83
2019-04-04T10:25:13.825Z,17.00
2019-04-04T10:28:14.452Z,17.50
2019-04-04T10:31:15.133Z,17.13
2019-04-04T10:34:15.758Z,18.93
2019-04-04T10:37:16.458Z,18.43
2019-04-04T10:40:17.352Z,25.57
2019-04-04T10:43:18.206Z,17.00
2019-04-04T10:46:18.974Z,19.83
2019-04-04T10:49:19.628Z,17.33
2019-04-04T10:52:20.731Z,21.67
2019-04-04T10:55:21.471Z,19.60
2019-04-04T10:58:22.389Z,17.20
2019-04-04T11:01:23.241Z,17.37
2019-04-04T11:04:23.981Z,19.17
2019-04-04T11:07:24.621Z,21.00
2019-04-04T11:10:25.354Z,17.07
2019-04-04T11:13:33.311Z,18.10
2019-04-04T11:16:30.399Z,19.83
2019-04-04T11:19:31.825Z,18.77
2019-04-04T11:22:32.455Z,18.57
2019-04-04T11:25:33.285Z,19.43
2019-04-04T11:28:34.147Z,19.90
2019-04-04T11:31:34.997Z,18.87
2019-04-04T11:34:35.848Z,17.67
2019-04-04T11:37:36.449Z,18.63
2019-04-04T11:40:37.170Z,17.03
2019-04-04T11:43:37.923Z,18.57
2019-04-04T11:46:38.609Z,19.97
2019-04-04T11:49:39.473Z,18.20
2019-04-04T11:52:40.113Z,21.20
2019-04-04T11:55:40.738Z,17.73
2019-04-04T11:58:41.406Z,21.00
2019-04-04T12:01:43.205Z,20.77
2019-04-04T12:04:44.189Z,18.97
2019-04-04T12:07:45.017Z,20.03
2019-04-04T12:10:45.850Z,21.07
2019-04-04T12:13:46.419Z,22.83
2019-04-04T12:16:47.338Z,20.90
2019-04-04T12:19:48.258Z,20.33
2019-04-04T12:22:48.905Z,21.03
2019-04-04T12:25:49.682Z,23.37
2019-04-04T12:28:51.057Z,20.57
2019-04-04T12:31:52.399Z,24.07
2019-04-04T12:34:53.145Z,22.90
2019-04-04T12:37:53.837Z,23.47
2019-04-04T12:40:54.626Z,23.40
2019-04-04T12:43:53.749Z,21.83
2019-04-04T12:47:01.781Z,24.10
2019-04-04T12:50:09.962Z,22.33
2019-04-04T12:53:17.998Z,25.97
2019-04-04T12:56:26.029Z,21.93
2019-04-04T12:59:34.123Z,24.03
2019-04-04T13:02:43.769Z,22.13
2019-04-04T13:05:51.801Z,21.60
2019-04-04T13:08:59.840Z,26.67
2019-04-04T13:12:07.945Z,23.10
2019-04-04T13:15:16.045Z,23.60
2019-04-04T13:18:24.083Z,23.70
2019-04-04T13:21:32.174Z,21.43
2019-04-04T13:24:40.189Z,23.63
2019-04-04T13:27:48.218Z,21.77
2019-04-04T13:30:56.238Z,23.77
2019-04-04T13:34:04.261Z,25.07
2019-04-04T13:37:12.291Z,23.00
2019-04-04T13:40:20.310Z,23.90
2019-04-04T13:43:28.341Z,22.43
2019-04-04T13:46:36.446Z,23.47
2019-04-04T13:49:45.056Z,23.43
2019-04-04T13:52:54.193Z,25.60
2019-04-04T13:56:02.280Z,22.60
2019-04-04T13:59:10.311Z,22.67
2019-04-04T14:02:18.346Z,20.23
2019-04-04T14:05:26.500Z,22.50
2019-04-04T14:08:34.529Z,24.67
2019-04-04T14:11:42.545Z,23.50
2019-04-04T14:14:43.050Z,23.20
2019-04-04T14:17:44.312Z,20.73
2019-04-04T14:20:45.526Z,22.73
2019-04-04T14:23:46.390Z,22.67
2019-04-04T14:26:47.117Z,23.37
2019-04-04T14:29:47.777Z,27.37
2019-04-04T14:32:48.516Z,21.87
2019-04-04T14:35:48.916Z,21.40
2019-04-04T14:38:49.769Z,23.07
2019-04-04T14:41:50.181Z,33.07
2019-04-04T14:44:50.877Z,25.07
2019-04-04T14:47:51.384Z,23.27
2019-04-04T14:50:51.777Z,26.20
2019-04-04T14:53:52.521Z,25.57
2019-04-04T14:56:53.378Z,24.83
2019-04-04T14:59:54.229Z,24.83
2019-04-04T15:02:55.041Z,23.07
2019-04-04T15:05:56.245Z,26.73
2019-04-04T15:08:56.933Z,27.23
2019-04-04T15:11:57.426Z,30.33
2019-04-04T15:14:58.357Z,28.33
2019-04-04T15:17:59.109Z,31.67
2019-04-04T15:20:59.937Z,31.20
2019-04-04T15:24:00.597Z,33.53
2019-04-04T15:27:01.082Z,36.10
2019-04-04T15:30:02.220Z,33.50
2019-04-04T15:33:03.098Z,36.57
2019-04-04T15:36:03.556Z,40.23
2019-04-04T15:39:05.680Z,37.83
2019-04-04T15:42:04.969Z,37.77
2019-04-04T15:45:13.278Z,40.37
2019-04-04T15:48:21.309Z,36.53
2019-04-04T15:51:30.006Z,42.20
2019-04-04T15:54:38.112Z,39.77
2019-04-04T15:57:46.121Z,34.77
2019-04-04T16:00:54.153Z,38.13
2019-04-04T16:04:02.189Z,35.27
2019-04-04T16:10:39.030Z,33.83
2019-04-04T16:13:40.249Z,38.10
2019-04-04T16:16:40.747Z,38.37
2019-04-04T16:19:41.514Z,35.37
2019-04-04T16:22:41.938Z,36.43
2019-04-04T16:25:42.609Z,34.93
2019-04-04T16:28:43.647Z,36.43
2019-04-04T16:31:44.209Z,34.20
2019-04-04T16:34:45.089Z,33.73
2019-04-04T16:37:45.693Z,41.57
2019-04-04T16:40:46.313Z,47.13
2019-04-04T16:43:49.341Z,29.40
2019-04-04T16:46:49.630Z,30.43
2019-04-04T16:49:50.343Z,28.60
2019-04-04T16:52:50.890Z,32.20
2019-04-04T16:55:51.482Z,28.70
2019-04-04T16:58:52.205Z,34.20
2019-04-04T17:01:52.730Z,32.07
2019-04-04T17:04:53.065Z,26.47
2019-04-04T17:07:53.693Z,29.83
2019-04-04T17:10:54.438Z,33.73
2019-04-04T17:13:55.174Z,32.90
2019-04-04T17:16:56.093Z,29.83
2019-04-04T17:19:56.622Z,28.73
2019-04-04T17:22:57.397Z,38.63
2019-04-04T17:25:58.121Z,29.57
2019-04-04T17:28:58.737Z,32.30
2019-04-04T17:32:00.684Z,28.77
2019-04-04T17:35:01.493Z,32.37
2019-04-04T17:38:02.069Z,27.30
2019-04-04T17:41:02.950Z,31.80
2019-04-04T17:44:04.349Z,29.67
2019-04-04T17:47:05.581Z,29.63
2019-04-04T17:50:06.561Z,31.67
2019-04-04T17:53:07.691Z,29.90
2019-04-04T17:56:08.873Z,36.93
2019-04-04T17:59:09.814Z,29.57
2019-04-04T18:02:10.562Z,37.53
2019-04-04T18:05:11.382Z,29.33
2019-04-04T18:08:11.980Z,30.03
2019-04-04T18:11:12.836Z,34.50
2019-04-04T18:14:13.421Z,31.27
2019-04-04T18:17:13.852Z,28.87
2019-04-04T18:20:14.533Z,26.37
2019-04-04T18:23:15.322Z,26.03
2019-04-04T18:26:16.106Z,27.37
2019-04-04T18:29:16.902Z,23.27
2019-04-04T18:32:17.474Z,26.37
2019-04-04T18:35:18.070Z,27.50
2019-04-04T18:38:18.818Z,28.73
2019-04-04T18:41:19.637Z,27.70
2019-04-04T18:44:20.338Z,26.40
2019-04-04T18:47:20.762Z,28.07
2019-04-04T18:50:21.345Z,27.87
2019-04-04T18:53:22.441Z,27.03
2019-04-04T18:56:23.273Z,28.27
2019-04-04T18:59:24.055Z,30.93
2019-04-04T19:02:24.434Z,27.60
2019-04-04T19:05:25.126Z,29.77
2019-04-04T19:08:25.658Z,30.67
2019-04-04T19:11:26.481Z,27.10
2019-04-04T19:14:27.277Z,32.83
2019-04-04T19:17:28.101Z,26.67
2019-04-04T19:20:28.957Z,33.40
2019-04-04T19:23:29.486Z,26.30
2019-04-04T19:26:28.630Z,27.90
2019-04-04T19:29:36.722Z,28.00
2019-04-04T19:32:44.746Z,32.33
2019-04-04T19:35:52.775Z,39.50
2019-04-04T19:39:00.881Z,33.33
2019-04-04T19:42:08.893Z,33.53
2019-04-04T19:45:17.196Z,31.20
2019-04-04T19:48:25.224Z,31.33
2019-04-04T19:51:33.246Z,38.03
2019-04-04T19:54:41.278Z,32.10
2019-04-04T19:57:49.295Z,33.43
2019-04-04T20:04:12.270Z,29.13
2019-04-04T20:07:20.377Z,27.97
2019-04-04T20:10:28.413Z,27.87
2019-04-04T20:13:31.313Z,27.83
2019-04-04T20:16:31.985Z,32.23
2019-04-04T20:19:33.013Z,30.40
2019-04-04T20:22:33.849Z,27.80
2019-04-04T20:25:34.493Z,27.87
2019-04-04T20:28:35.363Z,28.63
2019-04-04T20:31:36.164Z,28.83
2019-04-04T20:34:37.341Z,28.87
2019-04-04T20:37:38.025Z,27.53
2019-04-04T20:40:38.749Z,31.37
2019-04-04T20:43:43.580Z,29.80
2019-04-04T20:46:42.663Z,28.60
2019-04-04T20:49:43.489Z,28.13
2019-04-04T20:52:44.379Z,34.85
2019-04-04T20:55:45.177Z,33.60
2019-04-04T20:58:45.999Z,29.27
2019-04-04T21:01:46.762Z,28.50
2019-04-04T21:04:47.584Z,31.53
2019-04-04T21:07:48.345Z,32.90
2019-04-04T21:10:49.193Z,33.50
2019-04-04T21:13:56.099Z,29.33
2019-04-04T21:16:52.747Z,34.60
2019-04-04T21:19:53.529Z,33.83
2019-04-04T21:22:54.253Z,32.33
2019-04-04T21:25:55.209Z,31.30
2019-04-04T21:28:56.144Z,34.40
2019-04-04T21:31:57.386Z,35.77
2019-04-04T21:34:58.257Z,35.50
2019-04-04T21:37:58.938Z,33.47
2019-04-04T21:40:59.842Z,36.03
2019-04-04T21:44:08.738Z,35.33
2019-04-04T21:47:03.474Z,33.03
2019-04-04T21:50:04.402Z,35.40
2019-04-04T21:53:05.139Z,33.27
2019-04-04T21:56:06.114Z,35.97
2019-04-04T21:59:06.753Z,35.87
2019-04-04T22:02:07.850Z,31.13
2019-04-04T22:05:08.594Z,31.97
2019-04-04T22:08:09.800Z,34.10
2019-04-04T22:11:10.186Z,34.10
2019-04-04T22:14:21.186Z,33.80
2019-04-04T22:17:13.821Z,33.97
2019-04-04T22:20:14.462Z,31.17
2019-04-04T22:23:15.154Z,32.10
2019-04-04T22:26:15.681Z,31.23
2019-04-04T22:29:16.387Z,33.07
2019-04-04T22:32:17.108Z,30.93
2019-04-04T22:35:18.079Z,31.60
2019-04-04T22:38:18.698Z,34.53
2019-04-04T22:41:19.319Z,32.90
2019-04-04T22:44:19.891Z,34.83
2019-04-04T22:47:20.634Z,30.70
2019-04-04T22:50:21.413Z,32.43
2019-04-04T22:53:22.485Z,36.37
2019-04-04T22:56:23.397Z,33.13
2019-04-04T22:59:24.062Z,34.67
2019-04-04T23:02:25.353Z,32.87
2019-04-04T23:05:26.521Z,35.13
2019-04-04T23:08:27.146Z,32.00
2019-04-04T23:11:27.976Z,33.40
2019-04-04T23:14:28.730Z,30.00
2019-04-04T23:17:29.481Z,34.07
2019-04-04T23:20:30.063Z,35.43
2019-04-04T23:23:30.879Z,29.43
2019-04-04T23:26:31.285Z,34.47
2019-04-04T23:29:32.192Z,34.77
2019-04-04T23:32:32.937Z,32.67
2019-04-04T23:35:33.577Z,32.60
2019-04-04T23:38:34.650Z,33.00
2019-04-04T23:41:35.698Z,31.37
2019-04-04T23:44:24.489Z,33.53
2019-04-04T23:47:42.103Z,34.07
2019-04-04T23:50:42.262Z,33.40
2019-04-04T23:53:50.273Z,34.80
2019-04-04T23:56:58.305Z,31.40
